sensor_id;sensor_type;location;lat;lon;timestamp;P1;durP1;ratioP1;P2;durP2;ratioP2
24335;SDS011;33098;52.400;16.880;2022-12-16T00:01:09;115.90;;;56.70;;
24335;SDS011;33098;52.400;16.880;2022-12-16T00:03:36;117.70;;;59.10;;
24335;SDS011;33098;52.400;16.880;2022-12-16T00:06:04;115.10;;;57.50;;
24335;SDS011;33098;52.400;16.880;2022-12-16T00:08:33;119.00;;;58.40;;
24335;SDS011;33098;52.400;16.880;2022-12-16T00:11:01;124.00;;;58.60;;
24335;SDS011;33098;52.400;16.880;2022-12-16T00:13:30;117.40;;;58.40;;
24335;SDS011;33098;52.400;16.880;2022-12-16T00:15:57;108.40;;;56.40;;
24335;SDS011;33098;52.400;16.880;2022-12-16T00:18:25;117.40;;;58.60;;
24335;SDS011;33098;52.400;16.880;2022-12-16T00:20:52;119.90;;;59.00;;
24335;SDS011;33098;52.400;16.880;2022-12-16T00:23:20;124.80;;;57.80;;
24335;SDS011;33098;52.400;16.880;2022-12-16T00:25:48;125.20;;;58.50;;
24335;SDS011;33098;52.400;16.880;2022-12-16T00:28:15;115.00;;;58.80;;
24335;SDS011;33098;52.400;16.880;2022-12-16T00:30:43;119.70;;;57.90;;
24335;SDS011;33098;52.400;16.880;2022-12-16T00:33:10;119.10;;;59.50;;
24335;SDS011;33098;52.400;16.880;2022-12-16T00:35:38;120.40;;;58.70;;
24335;SDS011;33098;52.400;16.880;2022-12-16T00:38:04;120.50;;;58.90;;
24335;SDS011;33098;52.400;16.880;2022-12-16T00:40:31;118.00;;;58.40;;
24335;SDS011;33098;52.400;16.880;2022-12-16T00:42:57;126.10;;;59.50;;
24335;SDS011;33098;52.400;16.880;2022-12-16T00:45:24;118.60;;;59.50;;
24335;SDS011;33098;52.400;16.880;2022-12-16T00:47:50;114.70;;;56.90;;
24335;SDS011;33098;52.400;16.880;2022-12-16T00:50:17;114.80;;;56.40;;
24335;SDS011;33098;52.400;16.880;2022-12-16T00:52:46;114.30;;;57.50;;
24335;SDS011;33098;52.400;16.880;2022-12-16T00:55:13;117.90;;;57.70;;
24335;SDS011;33098;52.400;16.880;2022-12-16T00:57:41;115.90;;;56.00;;
24335;SDS011;33098;52.400;16.880;2022-12-16T01:00:08;117.60;;;57.00;;
24335;SDS011;33098;52.400;16.880;2022-12-16T01:02:41;115.90;;;55.80;;
24335;SDS011;33098;52.400;16.880;2022-12-16T01:05:10;107.80;;;54.50;;
24335;SDS011;33098;52.400;16.880;2022-12-16T01:07:38;115.20;;;54.90;;
24335;SDS011;33098;52.400;16.880;2022-12-16T01:10:05;113.00;;;57.20;;
24335;SDS011;33098;52.400;16.880;2022-12-16T01:12:33;109.50;;;54.50;;
24335;SDS011;33098;52.400;16.880;2022-12-16T01:15:01;114.40;;;55.50;;
24335;SDS011;33098;52.400;16.880;2022-12-16T01:17:28;113.60;;;55.80;;
24335;SDS011;33098;52.400;16.880;2022-12-16T01:19:55;112.00;;;54.50;;
24335;SDS011;33098;52.400;16.880;2022-12-16T01:22:21;110.00;;;54.90;;
24335;SDS011;33098;52.400;16.880;2022-12-16T01:24:48;121.20;;;58.70;;
24335;SDS011;33098;52.400;16.880;2022-12-16T01:27:14;114.30;;;56.10;;
24335;SDS011;33098;52.400;16.880;2022-12-16T01:29:42;119.20;;;58.00;;
24335;SDS011;33098;52.400;16.880;2022-12-16T01:32:11;116.10;;;57.50;;
24335;SDS011;33098;52.400;16.880;2022-12-16T01:34:38;114.80;;;58.10;;
24335;SDS011;33098;52.400;16.880;2022-12-16T01:37:05;121.40;;;59.10;;
24335;SDS011;33098;52.400;16.880;2022-12-16T01:39:32;126.90;;;59.20;;
24335;SDS011;33098;52.400;16.880;2022-12-16T01:41:59;124.00;;;59.60;;
24335;SDS011;33098;52.400;16.880;2022-12-16T01:44:25;118.10;;;58.30;;
24335;SDS011;33098;52.400;16.880;2022-12-16T01:46:53;116.00;;;58.10;;
24335;SDS011;33098;52.400;16.880;2022-12-16T01:49:25;128.30;;;58.90;;
24335;SDS011;33098;52.400;16.880;2022-12-16T01:51:57;129.60;;;59.70;;
24335;SDS011;33098;52.400;16.880;2022-12-16T01:54:28;119.90;;;59.70;;
24335;SDS011;33098;52.400;16.880;2022-12-16T01:57:05;126.60;;;59.60;;
24335;SDS011;33098;52.400;16.880;2022-12-16T01:59:38;123.90;;;58.10;;
24335;SDS011;33098;52.400;16.880;2022-12-16T02:02:07;114.10;;;57.00;;
24335;SDS011;33098;52.400;16.880;2022-12-16T02:04:35;120.50;;;58.30;;
24335;SDS011;33098;52.400;16.880;2022-12-16T02:07:22;111.00;;;55.80;;
24335;SDS011;33098;52.400;16.880;2022-12-16T02:09:51;114.10;;;55.20;;
24335;SDS011;33098;52.400;16.880;2022-12-16T02:12:22;116.20;;;56.70;;
24335;SDS011;33098;52.400;16.880;2022-12-16T02:15:07;124.10;;;58.30;;
24335;SDS011;33098;52.400;16.880;2022-12-16T02:23:49;120.70;;;57.90;;
24335;SDS011;33098;52.400;16.880;2022-12-16T02:26:51;111.10;;;55.80;;
24335;SDS011;33098;52.400;16.880;2022-12-16T02:29:38;109.50;;;53.40;;
24335;SDS011;33098;52.400;16.880;2022-12-16T02:35:23;114.90;;;56.00;;
24335;SDS011;33098;52.400;16.880;2022-12-16T02:38:26;106.40;;;52.90;;
24335;SDS011;33098;52.400;16.880;2022-12-16T02:41:04;103.30;;;52.60;;
24335;SDS011;33098;52.400;16.880;2022-12-16T02:46:16;101.50;;;50.80;;
24335;SDS011;33098;52.400;16.880;2022-12-16T02:48:47;98.50;;;49.40;;
24335;SDS011;33098;52.400;16.880;2022-12-16T02:51:13;94.80;;;49.70;;
24335;SDS011;33098;52.400;16.880;2022-12-16T02:53:41;103.00;;;50.10;;
24335;SDS011;33098;52.400;16.880;2022-12-16T03:01:48;94.50;;;48.50;;
24335;SDS011;33098;52.400;16.880;2022-12-16T03:04:49;99.50;;;47.80;;
24335;SDS011;33098;52.400;16.880;2022-12-16T03:07:23;91.50;;;46.40;;
24335;SDS011;33098;52.400;16.880;2022-12-16T03:09:52;90.90;;;47.00;;
24335;SDS011;33098;52.400;16.880;2022-12-16T03:12:20;93.60;;;47.50;;
24335;SDS011;33098;52.400;16.880;2022-12-16T03:14:49;86.20;;;44.40;;
24335;SDS011;33098;52.400;16.880;2022-12-16T03:17:18;89.00;;;46.50;;
24335;SDS011;33098;52.400;16.880;2022-12-16T03:19:55;86.50;;;44.40;;
24335;SDS011;33098;52.400;16.880;2022-12-16T03:22:28;86.30;;;45.50;;
24335;SDS011;33098;52.400;16.880;2022-12-16T03:24:59;86.30;;;44.80;;
24335;SDS011;33098;52.400;16.880;2022-12-16T03:30:48;82.20;;;42.40;;
24335;SDS011;33098;52.400;16.880;2022-12-16T03:33:25;84.40;;;42.50;;
24335;SDS011;33098;52.400;16.880;2022-12-16T03:36:03;80.10;;;42.30;;
24335;SDS011;33098;52.400;16.880;2022-12-16T03:38:35;87.90;;;44.10;;
24335;SDS011;33098;52.400;16.880;2022-12-16T03:41:04;87.30;;;45.10;;
24335;SDS011;33098;52.400;16.880;2022-12-16T03:43:32;84.00;;;44.60;;
24335;SDS011;33098;52.400;16.880;2022-12-16T03:46:00;90.60;;;47.20;;
24335;SDS011;33098;52.400;16.880;2022-12-16T03:48:31;89.50;;;45.10;;
24335;SDS011;33098;52.400;16.880;2022-12-16T03:50:59;80.90;;;45.10;;
24335;SDS011;33098;52.400;16.880;2022-12-16T03:53:26;82.30;;;43.60;;
24335;SDS011;33098;52.400;16.880;2022-12-16T03:55:53;83.90;;;44.70;;
24335;SDS011;33098;52.400;16.880;2022-12-16T03:58:20;84.10;;;44.30;;
24335;SDS011;33098;52.400;16.880;2022-12-16T04:00:47;81.10;;;44.70;;
24335;SDS011;33098;52.400;16.880;2022-12-16T04:03:13;90.40;;;45.80;;
24335;SDS011;33098;52.400;16.880;2022-12-16T04:05:40;90.80;;;46.40;;
24335;SDS011;33098;52.400;16.880;2022-12-16T04:08:06;85.10;;;44.30;;
24335;SDS011;33098;52.400;16.880;2022-12-16T04:10:32;83.60;;;43.90;;
24335;SDS011;33098;52.400;16.880;2022-12-16T04:13:18;86.50;;;43.50;;
24335;SDS011;33098;52.400;16.880;2022-12-16T04:16:03;86.60;;;44.20;;
24335;SDS011;33098;52.400;16.880;2022-12-16T04:18:49;83.40;;;42.60;;
24335;SDS011;33098;52.400;16.880;2022-12-16T04:21:34;87.10;;;45.60;;
24335;SDS011;33098;52.400;16.880;2022-12-16T04:24:19;78.90;;;42.90;;
24335;SDS011;33098;52.400;16.880;2022-12-16T04:26:52;85.30;;;43.80;;
24335;SDS011;33098;52.400;16.880;2022-12-16T04:29:37;80.20;;;43.30;;
24335;SDS011;33098;52.400;16.880;2022-12-16T04:32:24;85.30;;;44.80;;
24335;SDS011;33098;52.400;16.880;2022-12-16T04:34:51;83.60;;;45.60;;
24335;SDS011;33098;52.400;16.880;2022-12-16T04:37:18;91.00;;;45.60;;
24335;SDS011;33098;52.400;16.880;2022-12-16T04:40:03;85.00;;;46.00;;
24335;SDS011;33098;52.400;16.880;2022-12-16T04:42:49;84.40;;;45.10;;
24335;SDS011;33098;52.400;16.880;2022-12-16T04:45:34;88.00;;;45.30;;
24335;SDS011;33098;52.400;16.880;2022-12-16T04:48:19;89.00;;;46.20;;
24335;SDS011;33098;52.400;16.880;2022-12-16T04:51:05;88.20;;;45.60;;
24335;SDS011;33098;52.400;16.880;2022-12-16T04:53:50;90.60;;;46.50;;
24335;SDS011;33098;52.400;16.880;2022-12-16T04:56:35;90.50;;;48.00;;
24335;SDS011;33098;52.400;16.880;2022-12-16T04:59:21;86.50;;;45.20;;
24335;SDS011;33098;52.400;16.880;2022-12-16T05:02:06;97.10;;;48.90;;
24335;SDS011;33098;52.400;16.880;2022-12-16T05:04:51;95.20;;;47.20;;
24335;SDS011;33098;52.400;16.880;2022-12-16T05:07:37;90.80;;;46.50;;
24335;SDS011;33098;52.400;16.880;2022-12-16T05:10:22;91.10;;;45.20;;
24335;SDS011;33098;52.400;16.880;2022-12-16T05:13:08;87.70;;;46.20;;
24335;SDS011;33098;52.400;16.880;2022-12-16T05:15:53;83.30;;;43.70;;
24335;SDS011;33098;52.400;16.880;2022-12-16T05:18:52;90.30;;;46.40;;
24335;SDS011;33098;52.400;16.880;2022-12-16T05:21:37;91.80;;;45.40;;
24335;SDS011;33098;52.400;16.880;2022-12-16T05:24:23;83.50;;;45.70;;
24335;SDS011;33098;52.400;16.880;2022-12-16T05:27:07;83.40;;;44.50;;
24335;SDS011;33098;52.400;16.880;2022-12-16T05:29:53;80.70;;;44.60;;
24335;SDS011;33098;52.400;16.880;2022-12-16T05:32:38;85.70;;;44.40;;
24335;SDS011;33098;52.400;16.880;2022-12-16T05:35:23;84.40;;;44.70;;
24335;SDS011;33098;52.400;16.880;2022-12-16T05:38:08;82.50;;;43.60;;
24335;SDS011;33098;52.400;16.880;2022-12-16T05:40:54;77.50;;;42.90;;
24335;SDS011;33098;52.400;16.880;2022-12-16T05:43:39;80.50;;;43.60;;
24335;SDS011;33098;52.400;16.880;2022-12-16T05:46:24;77.40;;;41.60;;
24335;SDS011;33098;52.400;16.880;2022-12-16T05:49:09;81.70;;;42.30;;
24335;SDS011;33098;52.400;16.880;2022-12-16T05:51:54;77.90;;;40.80;;
24335;SDS011;33098;52.400;16.880;2022-12-16T05:54:39;78.60;;;42.00;;
24335;SDS011;33098;52.400;16.880;2022-12-16T05:57:24;83.20;;;43.40;;
24335;SDS011;33098;52.400;16.880;2022-12-16T06:00:10;83.60;;;43.00;;
24335;SDS011;33098;52.400;16.880;2022-12-16T06:02:56;79.70;;;43.00;;
24335;SDS011;33098;52.400;16.880;2022-12-16T06:05:41;88.40;;;44.80;;
24335;SDS011;33098;52.400;16.880;2022-12-16T06:08:26;87.50;;;44.80;;
24335;SDS011;33098;52.400;16.880;2022-12-16T06:11:11;90.90;;;46.40;;
24335;SDS011;33098;52.400;16.880;2022-12-16T06:13:57;83.50;;;43.40;;
24335;SDS011;33098;52.400;16.880;2022-12-16T06:16:42;86.10;;;44.30;;
24335;SDS011;33098;52.400;16.880;2022-12-16T06:19:27;83.70;;;44.30;;
24335;SDS011;33098;52.400;16.880;2022-12-16T06:22:13;92.10;;;44.10;;
24335;SDS011;33098;52.400;16.880;2022-12-16T06:24:58;88.40;;;45.10;;
24335;SDS011;33098;52.400;16.880;2022-12-16T06:27:47;85.60;;;44.10;;
24335;SDS011;33098;52.400;16.880;2022-12-16T06:30:34;84.30;;;45.30;;
24335;SDS011;33098;52.400;16.880;2022-12-16T06:33:19;89.30;;;44.70;;
24335;SDS011;33098;52.400;16.880;2022-12-16T06:36:05;86.00;;;44.40;;
24335;SDS011;33098;52.400;16.880;2022-12-16T06:38:50;81.60;;;42.70;;
24335;SDS011;33098;52.400;16.880;2022-12-16T06:41:35;91.20;;;45.10;;
24335;SDS011;33098;52.400;16.880;2022-12-16T06:44:20;82.90;;;44.20;;
24335;SDS011;33098;52.400;16.880;2022-12-16T06:47:06;87.80;;;45.30;;
24335;SDS011;33098;52.400;16.880;2022-12-16T06:49:51;84.80;;;44.90;;
24335;SDS011;33098;52.400;16.880;2022-12-16T06:52:36;87.50;;;44.90;;
24335;SDS011;33098;52.400;16.880;2022-12-16T06:55:21;90.10;;;46.30;;
24335;SDS011;33098;52.400;16.880;2022-12-16T06:58:07;91.60;;;46.10;;
24335;SDS011;33098;52.400;16.880;2022-12-16T07:00:52;87.50;;;45.20;;
24335;SDS011;33098;52.400;16.880;2022-12-16T07:03:37;84.20;;;43.70;;
24335;SDS011;33098;52.400;16.880;2022-12-16T07:06:23;84.60;;;44.30;;
24335;SDS011;33098;52.400;16.880;2022-12-16T07:09:08;84.00;;;42.50;;
24335;SDS011;33098;52.400;16.880;2022-12-16T07:11:54;79.50;;;43.00;;
24335;SDS011;33098;52.400;16.880;2022-12-16T07:14:39;80.30;;;42.90;;
24335;SDS011;33098;52.400;16.880;2022-12-16T07:17:25;78.30;;;43.00;;
24335;SDS011;33098;52.400;16.880;2022-12-16T07:20:10;83.80;;;44.30;;
24335;SDS011;33098;52.400;16.880;2022-12-16T07:22:55;85.20;;;43.80;;
24335;SDS011;33098;52.400;16.880;2022-12-16T07:25:41;86.90;;;44.40;;
24335;SDS011;33098;52.400;16.880;2022-12-16T07:28:26;81.50;;;43.80;;
24335;SDS011;33098;52.400;16.880;2022-12-16T07:31:12;91.30;;;44.90;;
24335;SDS011;33098;52.400;16.880;2022-12-16T07:33:57;86.20;;;43.80;;
24335;SDS011;33098;52.400;16.880;2022-12-16T07:36:43;85.90;;;44.30;;
24335;SDS011;33098;52.400;16.880;2022-12-16T07:39:28;92.20;;;45.90;;
24335;SDS011;33098;52.400;16.880;2022-12-16T07:42:13;93.60;;;47.50;;
24335;SDS011;33098;52.400;16.880;2022-12-16T07:44:59;96.50;;;47.70;;
24335;SDS011;33098;52.400;16.880;2022-12-16T07:47:48;94.90;;;47.60;;
24335;SDS011;33098;52.400;16.880;2022-12-16T07:50:37;97.40;;;49.20;;
24335;SDS011;33098;52.400;16.880;2022-12-16T07:53:22;89.80;;;45.50;;
24335;SDS011;33098;52.400;16.880;2022-12-16T07:56:08;91.80;;;47.00;;
24335;SDS011;33098;52.400;16.880;2022-12-16T07:58:54;98.70;;;47.00;;
24335;SDS011;33098;52.400;16.880;2022-12-16T08:01:39;92.00;;;46.70;;
24335;SDS011;33098;52.400;16.880;2022-12-16T08:04:25;87.60;;;44.70;;
24335;SDS011;33098;52.400;16.880;2022-12-16T08:07:10;88.10;;;44.90;;
24335;SDS011;33098;52.400;16.880;2022-12-16T08:09:55;87.70;;;45.80;;
24335;SDS011;33098;52.400;16.880;2022-12-16T08:12:40;92.80;;;45.20;;
24335;SDS011;33098;52.400;16.880;2022-12-16T08:15:26;90.80;;;45.70;;
24335;SDS011;33098;52.400;16.880;2022-12-16T08:18:11;85.60;;;45.10;;
24335;SDS011;33098;52.400;16.880;2022-12-16T08:20:56;93.40;;;45.60;;
24335;SDS011;33098;52.400;16.880;2022-12-16T08:23:42;80.10;;;43.60;;
24335;SDS011;33098;52.400;16.880;2022-12-16T08:26:27;86.50;;;44.30;;
24335;SDS011;33098;52.400;16.880;2022-12-16T08:29:12;84.70;;;44.60;;
24335;SDS011;33098;52.400;16.880;2022-12-16T08:31:58;87.10;;;45.20;;
24335;SDS011;33098;52.400;16.880;2022-12-16T08:34:43;89.20;;;46.20;;
24335;SDS011;33098;52.400;16.880;2022-12-16T08:37:28;91.80;;;46.50;;
24335;SDS011;33098;52.400;16.880;2022-12-16T08:40:14;90.10;;;45.20;;
24335;SDS011;33098;52.400;16.880;2022-12-16T08:42:59;93.00;;;45.80;;
24335;SDS011;33098;52.400;16.880;2022-12-16T08:45:44;94.20;;;45.40;;
24335;SDS011;33098;52.400;16.880;2022-12-16T08:48:29;93.60;;;47.10;;
24335;SDS011;33098;52.400;16.880;2022-12-16T08:51:15;89.20;;;46.50;;
24335;SDS011;33098;52.400;16.880;2022-12-16T08:54:00;88.40;;;46.40;;
24335;SDS011;33098;52.400;16.880;2022-12-16T08:56:45;93.50;;;46.20;;
24335;SDS011;33098;52.400;16.880;2022-12-16T08:59:30;95.60;;;47.60;;
24335;SDS011;33098;52.400;16.880;2022-12-16T09:02:16;91.50;;;47.30;;
24335;SDS011;33098;52.400;16.880;2022-12-16T09:05:01;91.40;;;46.90;;
24335;SDS011;33098;52.400;16.880;2022-12-16T09:07:46;89.30;;;46.30;;
24335;SDS011;33098;52.400;16.880;2022-12-16T09:10:32;96.10;;;48.40;;
24335;SDS011;33098;52.400;16.880;2022-12-16T09:13:17;96.60;;;49.30;;
24335;SDS011;33098;52.400;16.880;2022-12-16T09:16:02;93.90;;;46.30;;
24335;SDS011;33098;52.400;16.880;2022-12-16T09:18:48;89.70;;;45.60;;
24335;SDS011;33098;52.400;16.880;2022-12-16T09:21:33;101.80;;;49.50;;
24335;SDS011;33098;52.400;16.880;2022-12-16T09:24:18;87.70;;;47.40;;
24335;SDS011;33098;52.400;16.880;2022-12-16T09:27:04;95.40;;;47.90;;
24335;SDS011;33098;52.400;16.880;2022-12-16T09:29:49;93.80;;;48.40;;
24335;SDS011;33098;52.400;16.880;2022-12-16T09:32:34;94.70;;;48.10;;
24335;SDS011;33098;52.400;16.880;2022-12-16T09:35:25;91.60;;;48.40;;
24335;SDS011;33098;52.400;16.880;2022-12-16T09:38:11;93.40;;;48.10;;
24335;SDS011;33098;52.400;16.880;2022-12-16T09:40:56;90.90;;;47.30;;
24335;SDS011;33098;52.400;16.880;2022-12-16T09:44:49;88.00;;;46.40;;
24335;SDS011;33098;52.400;16.880;2022-12-16T09:47:41;93.10;;;46.90;;
24335;SDS011;33098;52.400;16.880;2022-12-16T09:50:29;88.30;;;46.60;;
24335;SDS011;33098;52.400;16.880;2022-12-16T09:53:19;87.90;;;45.50;;
24335;SDS011;33098;52.400;16.880;2022-12-16T09:56:08;93.20;;;45.50;;
24335;SDS011;33098;52.400;16.880;2022-12-16T09:59:01;86.10;;;45.00;;
24335;SDS011;33098;52.400;16.880;2022-12-16T10:01:51;85.50;;;45.20;;
24335;SDS011;33098;52.400;16.880;2022-12-16T10:04:37;90.50;;;48.00;;
24335;SDS011;33098;52.400;16.880;2022-12-16T10:07:22;90.20;;;45.60;;
24335;SDS011;33098;52.400;16.880;2022-12-16T10:10:20;91.00;;;46.70;;
24335;SDS011;33098;52.400;16.880;2022-12-16T10:16:55;91.80;;;46.90;;
24335;SDS011;33098;52.400;16.880;2022-12-16T10:19:55;92.90;;;45.50;;
24335;SDS011;33098;52.400;16.880;2022-12-16T10:23:01;95.20;;;48.80;;
24335;SDS011;33098;52.400;16.880;2022-12-16T10:25:55;89.60;;;47.20;;
24335;SDS011;33098;52.400;16.880;2022-12-16T10:28:58;91.30;;;48.80;;
24335;SDS011;33098;52.400;16.880;2022-12-16T10:31:50;85.20;;;45.60;;
24335;SDS011;33098;52.400;16.880;2022-12-16T10:34:35;90.90;;;46.70;;
24335;SDS011;33098;52.400;16.880;2022-12-16T10:37:33;94.80;;;49.40;;
24335;SDS011;33098;52.400;16.880;2022-12-16T10:40:22;91.70;;;47.10;;
24335;SDS011;33098;52.400;16.880;2022-12-16T10:43:14;92.60;;;49.30;;
24335;SDS011;33098;52.400;16.880;2022-12-16T10:46:04;90.10;;;48.90;;
24335;SDS011;33098;52.400;16.880;2022-12-16T10:48:56;96.90;;;50.30;;
24335;SDS011;33098;52.400;16.880;2022-12-16T10:51:41;99.50;;;50.40;;
24335;SDS011;33098;52.400;16.880;2022-12-16T10:54:40;92.20;;;50.90;;
24335;SDS011;33098;52.400;16.880;2022-12-16T10:57:42;102.40;;;51.50;;
24335;SDS011;33098;52.400;16.880;2022-12-16T11:00:49;96.00;;;52.60;;
24335;SDS011;33098;52.400;16.880;2022-12-16T11:03:37;98.50;;;51.80;;
24335;SDS011;33098;52.400;16.880;2022-12-16T11:06:27;105.60;;;51.80;;
24335;SDS011;33098;52.400;16.880;2022-12-16T11:09:27;97.20;;;52.10;;
24335;SDS011;33098;52.400;16.880;2022-12-16T11:12:27;99.50;;;52.60;;
24335;SDS011;33098;52.400;16.880;2022-12-16T11:18:14;101.40;;;51.60;;
24335;SDS011;33098;52.400;16.880;2022-12-16T11:21:11;100.40;;;52.90;;
24335;SDS011;33098;52.400;16.880;2022-12-16T11:26:54;97.90;;;51.70;;
24335;SDS011;33098;52.400;16.880;2022-12-16T11:29:52;100.20;;;53.20;;
24335;SDS011;33098;52.400;16.880;2022-12-16T11:32:43;100.90;;;51.00;;
24335;SDS011;33098;52.400;16.880;2022-12-16T11:36:02;96.90;;;50.30;;
24335;SDS011;33098;52.400;16.880;2022-12-16T11:38:51;92.90;;;50.90;;
24335;SDS011;33098;52.400;16.880;2022-12-16T11:41:42;99.80;;;52.80;;
24335;SDS011;33098;52.400;16.880;2022-12-16T11:44:35;96.80;;;50.60;;
24335;SDS011;33098;52.400;16.880;2022-12-16T11:50:23;95.90;;;51.40;;
24335;SDS011;33098;52.400;16.880;2022-12-16T11:56:23;102.00;;;52.00;;
24335;SDS011;33098;52.400;16.880;2022-12-16T11:59:15;95.90;;;50.60;;
24335;SDS011;33098;52.400;16.880;2022-12-16T12:02:01;93.70;;;51.20;;
24335;SDS011;33098;52.400;16.880;2022-12-16T12:04:48;93.70;;;50.00;;
24335;SDS011;33098;52.400;16.880;2022-12-16T12:10:37;101.50;;;51.40;;
24335;SDS011;33098;52.400;16.880;2022-12-16T12:13:46;98.80;;;52.00;;
24335;SDS011;33098;52.400;16.880;2022-12-16T12:19:50;104.70;;;52.70;;
24335;SDS011;33098;52.400;16.880;2022-12-16T12:22:43;98.70;;;51.50;;
24335;SDS011;33098;52.400;16.880;2022-12-16T12:35:09;102.90;;;53.50;;
24335;SDS011;33098;52.400;16.880;2022-12-16T12:38:18;100.90;;;52.90;;
24335;SDS011;33098;52.400;16.880;2022-12-16T12:41:11;92.40;;;51.40;;
24335;SDS011;33098;52.400;16.880;2022-12-16T12:44:25;97.60;;;51.80;;
24335;SDS011;33098;52.400;16.880;2022-12-16T12:47:19;102.60;;;52.10;;
24335;SDS011;33098;52.400;16.880;2022-12-16T12:50:07;96.20;;;51.10;;
24335;SDS011;33098;52.400;16.880;2022-12-16T12:53:20;92.50;;;50.40;;
24335;SDS011;33098;52.400;16.880;2022-12-16T12:56:22;99.10;;;52.00;;
24335;SDS011;33098;52.400;16.880;2022-12-16T12:59:28;100.20;;;52.20;;
24335;SDS011;33098;52.400;16.880;2022-12-16T13:02:23;96.00;;;51.20;;
24335;SDS011;33098;52.400;16.880;2022-12-16T13:05:14;98.10;;;51.20;;
24335;SDS011;33098;52.400;16.880;2022-12-16T13:08:29;104.00;;;54.90;;
24335;SDS011;33098;52.400;16.880;2022-12-16T13:11:16;97.20;;;51.60;;
24335;SDS011;33098;52.400;16.880;2022-12-16T13:14:01;93.50;;;52.10;;
24335;SDS011;33098;52.400;16.880;2022-12-16T13:17:12;105.10;;;52.50;;
24335;SDS011;33098;52.400;16.880;2022-12-16T13:20:00;103.30;;;53.40;;
24335;SDS011;33098;52.400;16.880;2022-12-16T13:22:46;108.10;;;54.50;;
24335;SDS011;33098;52.400;16.880;2022-12-16T13:25:33;95.70;;;52.30;;
24335;SDS011;33098;52.400;16.880;2022-12-16T13:28:27;99.40;;;52.20;;
24335;SDS011;33098;52.400;16.880;2022-12-16T13:31:17;97.10;;;51.30;;
24335;SDS011;33098;52.400;16.880;2022-12-16T13:34:18;103.40;;;52.60;;
24335;SDS011;33098;52.400;16.880;2022-12-16T13:37:44;100.70;;;52.20;;
24335;SDS011;33098;52.400;16.880;2022-12-16T13:40:22;99.20;;;51.80;;
24335;SDS011;33098;52.400;16.880;2022-12-16T13:55:26;97.30;;;51.10;;
24335;SDS011;33098;52.400;16.880;2022-12-16T13:58:15;90.70;;;49.90;;
24335;SDS011;33098;52.400;16.880;2022-12-16T14:01:14;93.00;;;47.90;;
24335;SDS011;33098;52.400;16.880;2022-12-16T14:04:03;93.80;;;48.20;;
24335;SDS011;33098;52.400;16.880;2022-12-16T14:06:54;94.10;;;49.90;;
24335;SDS011;33098;52.400;16.880;2022-12-16T14:12:40;85.50;;;46.10;;
24335;SDS011;33098;52.400;16.880;2022-12-16T14:18:32;91.70;;;47.50;;
24335;SDS011;33098;52.400;16.880;2022-12-16T14:21:31;89.40;;;46.60;;
24335;SDS011;33098;52.400;16.880;2022-12-16T14:24:23;84.90;;;46.60;;
24335;SDS011;33098;52.400;16.880;2022-12-16T14:27:15;95.90;;;48.00;;
24335;SDS011;33098;52.400;16.880;2022-12-16T14:30:10;93.10;;;46.90;;
24335;SDS011;33098;52.400;16.880;2022-12-16T14:33:13;95.50;;;49.30;;
24335;SDS011;33098;52.400;16.880;2022-12-16T14:36:00;90.10;;;47.40;;
24335;SDS011;33098;52.400;16.880;2022-12-16T14:38:46;94.10;;;49.30;;
24335;SDS011;33098;52.400;16.880;2022-12-16T14:41:33;94.20;;;47.60;;
24335;SDS011;33098;52.400;16.880;2022-12-16T14:44:19;91.40;;;48.30;;
24335;SDS011;33098;52.400;16.880;2022-12-16T14:47:17;89.40;;;49.00;;
24335;SDS011;33098;52.400;16.880;2022-12-16T14:50:17;94.30;;;49.40;;
24335;SDS011;33098;52.400;16.880;2022-12-16T14:53:12;96.70;;;49.50;;
24335;SDS011;33098;52.400;16.880;2022-12-16T14:56:10;90.20;;;48.20;;
24335;SDS011;33098;52.400;16.880;2022-12-16T14:59:08;89.00;;;47.80;;
24335;SDS011;33098;52.400;16.880;2022-12-16T15:02:10;92.50;;;48.70;;
24335;SDS011;33098;52.400;16.880;2022-12-16T15:05:05;91.10;;;48.90;;
24335;SDS011;33098;52.400;16.880;2022-12-16T15:07:51;102.00;;;50.60;;
24335;SDS011;33098;52.400;16.880;2022-12-16T15:10:36;90.80;;;48.80;;
24335;SDS011;33098;52.400;16.880;2022-12-16T15:13:22;94.10;;;48.60;;
24335;SDS011;33098;52.400;16.880;2022-12-16T15:16:10;97.90;;;49.90;;
24335;SDS011;33098;52.400;16.880;2022-12-16T15:19:01;97.60;;;50.50;;
24335;SDS011;33098;52.400;16.880;2022-12-16T15:21:47;95.40;;;49.70;;
24335;SDS011;33098;52.400;16.880;2022-12-16T15:24:34;100.60;;;51.80;;
24335;SDS011;33098;52.400;16.880;2022-12-16T15:27:24;104.00;;;51.50;;
24335;SDS011;33098;52.400;16.880;2022-12-16T15:33:17;99.90;;;51.40;;
24335;SDS011;33098;52.400;16.880;2022-12-16T15:36:03;100.30;;;50.60;;
24335;SDS011;33098;52.400;16.880;2022-12-16T15:38:50;104.50;;;53.40;;
24335;SDS011;33098;52.400;16.880;2022-12-16T15:41:36;101.70;;;51.60;;
24335;SDS011;33098;52.400;16.880;2022-12-16T15:44:25;99.70;;;52.80;;
24335;SDS011;33098;52.400;16.880;2022-12-16T15:47:18;98.20;;;51.90;;
24335;SDS011;33098;52.400;16.880;2022-12-16T15:50:04;100.00;;;52.40;;
24335;SDS011;33098;52.400;16.880;2022-12-16T15:52:50;97.70;;;53.10;;
24335;SDS011;33098;52.400;16.880;2022-12-16T15:55:37;101.40;;;52.40;;
24335;SDS011;33098;52.400;16.880;2022-12-16T15:58:28;100.70;;;53.00;;
24335;SDS011;33098;52.400;16.880;2022-12-16T16:01:19;96.80;;;51.80;;
24335;SDS011;33098;52.400;16.880;2022-12-16T16:07:15;106.60;;;56.10;;
24335;SDS011;33098;52.400;16.880;2022-12-16T16:10:15;110.10;;;57.70;;
24335;SDS011;33098;52.400;16.880;2022-12-16T16:13:06;109.10;;;55.80;;
24335;SDS011;33098;52.400;16.880;2022-12-16T16:15:51;106.50;;;54.80;;
24335;SDS011;33098;52.400;16.880;2022-12-16T16:18:37;98.90;;;51.20;;
24335;SDS011;33098;52.400;16.880;2022-12-16T16:21:22;101.00;;;52.00;;
24335;SDS011;33098;52.400;16.880;2022-12-16T16:24:07;106.40;;;53.10;;
24335;SDS011;33098;52.400;16.880;2022-12-16T16:26:53;102.60;;;52.60;;
24335;SDS011;33098;52.400;16.880;2022-12-16T16:29:39;107.30;;;54.00;;
24335;SDS011;33098;52.400;16.880;2022-12-16T16:32:25;96.90;;;51.30;;
24335;SDS011;33098;52.400;16.880;2022-12-16T16:35:10;105.60;;;52.70;;
24335;SDS011;33098;52.400;16.880;2022-12-16T16:37:56;105.70;;;53.20;;
24335;SDS011;33098;52.400;16.880;2022-12-16T16:40:42;105.30;;;54.50;;
24335;SDS011;33098;52.400;16.880;2022-12-16T16:43:28;107.80;;;55.50;;
24335;SDS011;33098;52.400;16.880;2022-12-16T16:46:20;101.60;;;53.40;;
24335;SDS011;33098;52.400;16.880;2022-12-16T16:52:13;97.10;;;50.40;;
24335;SDS011;33098;52.400;16.880;2022-12-16T16:55:01;94.50;;;51.00;;
24335;SDS011;33098;52.400;16.880;2022-12-16T16:57:47;109.00;;;54.80;;
24335;SDS011;33098;52.400;16.880;2022-12-16T17:00:32;113.70;;;55.60;;
24335;SDS011;33098;52.400;16.880;2022-12-16T17:03:18;101.90;;;54.20;;